createdAt,value
2022-10-03T00:02:21.199Z,83.09
2022-10-03T00:05:11.824Z,82.60
2022-10-03T00:07:54.818Z,82.97
2022-10-03T00:10:31.083Z,82.81
2022-10-03T00:13:09.724Z,82.87
2022-10-03T00:15:47.225Z,83.24
2022-10-03T00:18:27.284Z,83.34
2022-10-03T00:21:09.270Z,83.19
2022-10-03T00:23:46.630Z,83.65
2022-10-03T00:26:30.707Z,83.29
2022-10-03T00:29:20.282Z,82.63
2022-10-03T00:32:01.410Z,82.35
2022-10-03T00:34:40.808Z,82.51
2022-10-03T00:37:25.105Z,82.39
2022-10-03T00:40:09.418Z,82.90
2022-10-03T00:43:20.561Z,83.25
2022-10-03T00:46:36.308Z,82.72
2022-10-03T00:49:28.630Z,83.06
2022-10-03T00:57:15.630Z,83.19
2022-10-03T00:59:56.885Z,83.47
2022-10-03T01:02:43.272Z,83.83
2022-10-03T01:05:20.398Z,82.90
2022-10-03T01:08:03.835Z,82.50
2022-10-03T01:10:39.396Z,83.16
2022-10-03T01:18:31.456Z,82.53
2022-10-03T01:21:07.414Z,82.95
2022-10-03T01:24:04.512Z,82.11
2022-10-03T01:26:49.240Z,81.59
2022-10-03T01:29:42.217Z,81.65
2022-10-03T01:32:15.191Z,81.71
2022-10-03T01:38:45.203Z,82.36
2022-10-03T01:41:22.152Z,82.53
2022-10-03T01:43:54.924Z,83.66
2022-10-03T01:46:22.935Z,83.90
2022-10-03T01:48:58.792Z,84.17
2022-10-03T01:51:29.474Z,84.77
2022-10-03T02:00:56.699Z,83.81
2022-10-03T02:03:27.317Z,83.43
2022-10-03T02:06:01.179Z,83.02
2022-10-03T02:08:43.764Z,83.23
2022-10-03T02:11:12.020Z,82.82
2022-10-03T02:13:47.483Z,83.19
2022-10-03T02:16:30.242Z,83.57
2022-10-03T02:24:24.043Z,81.85
2022-10-03T02:27:20.966Z,81.15
2022-10-03T02:30:02.992Z,81.32
2022-10-03T02:33:04.080Z,81.83
2022-10-03T02:35:55.591Z,81.05
2022-10-03T02:38:42.971Z,80.84
2022-10-03T02:49:27.168Z,81.87
2022-10-03T02:52:26.126Z,82.61
2022-10-03T02:55:23.534Z,82.23
2022-10-03T02:58:15.620Z,82.09
2022-10-03T03:01:06.856Z,81.44
2022-10-03T03:04:05.994Z,81.09
2022-10-03T03:12:12.277Z,81.59
2022-10-03T03:15:07.714Z,82.04
2022-10-03T03:17:42.068Z,82.19
2022-10-03T03:20:25.470Z,81.96
2022-10-03T03:23:10.037Z,82.21
2022-10-03T03:25:51.363Z,81.32
2022-10-03T03:32:19.274Z,81.02
2022-10-03T03:34:54.031Z,81.00
2022-10-03T03:37:29.547Z,81.44
2022-10-03T03:40:08.913Z,80.91
2022-10-03T03:42:56.629Z,81.14
2022-10-03T03:45:41.148Z,80.63
2022-10-03T03:48:24.402Z,81.12
2022-10-03T03:51:12.185Z,81.28
2022-10-03T03:53:59.493Z,81.16
2022-10-03T03:56:56.075Z,82.30
2022-10-03T03:59:40.869Z,82.71
2022-10-03T04:02:22.006Z,82.46
2022-10-03T04:05:07.910Z,82.12
2022-10-03T04:07:50.378Z,81.87
2022-10-03T04:10:29.732Z,81.60
2022-10-03T04:13:18.937Z,80.90
2022-10-03T04:16:08.618Z,81.09
2022-10-03T04:19:00.961Z,81.11
2022-10-03T04:22:01.047Z,80.71
2022-10-03T04:25:00.964Z,80.81
2022-10-03T04:28:00.133Z,80.96
2022-10-03T04:30:38.210Z,80.97
2022-10-03T04:33:27.859Z,81.13
2022-10-03T04:36:39.950Z,82.07
2022-10-03T04:39:17.382Z,82.56
2022-10-03T04:41:53.076Z,81.83
2022-10-03T04:44:34.765Z,81.23
2022-10-03T04:47:10.911Z,80.67
2022-10-03T04:49:44.494Z,80.81
2022-10-03T04:52:20.032Z,80.15
2022-10-03T04:54:58.167Z,79.81
2022-10-03T04:57:36.535Z,78.44
2022-10-03T05:00:15.495Z,78.77
2022-10-03T05:02:50.151Z,78.93
2022-10-03T05:05:42.930Z,79.27
2022-10-03T05:08:22.320Z,79.16
2022-10-03T05:10:58.915Z,79.32
2022-10-03T05:13:42.345Z,79.13
2022-10-03T05:16:21.957Z,80.05
2022-10-03T05:18:56.523Z,79.47
2022-10-03T05:21:35.031Z,79.46
2022-10-03T05:24:15.533Z,79.61
2022-10-03T05:26:50.038Z,80.48
2022-10-03T05:29:28.239Z,79.39
2022-10-03T05:32:11.489Z,80.06
2022-10-03T05:35:04.761Z,80.37
2022-10-03T05:37:50.966Z,79.35
2022-10-03T05:40:24.268Z,77.69
2022-10-03T05:43:05.962Z,77.98
2022-10-03T05:45:49.002Z,78.79
2022-10-03T05:48:32.487Z,78.95
2022-10-03T05:57:39.245Z,77.38
2022-10-03T06:00:15.582Z,78.20
2022-10-03T06:03:18.265Z,79.13
2022-10-03T06:05:58.250Z,79.04
2022-10-03T06:08:52.491Z,79.30
2022-10-03T06:11:48.940Z,79.03
2022-10-03T06:14:34.711Z,78.33
2022-10-03T06:22:47.578Z,77.05
2022-10-03T06:25:52.791Z,76.75
2022-10-03T06:28:56.030Z,78.01
2022-10-03T06:31:57.403Z,78.84
2022-10-03T06:34:44.354Z,79.01
2022-10-03T06:37:41.803Z,79.40
2022-10-03T06:45:56.611Z,79.58
2022-10-03T06:48:58.142Z,79.14
2022-10-03T06:51:52.906Z,78.09
2022-10-03T06:54:54.616Z,78.13
2022-10-03T06:57:39.208Z,77.79
2022-10-03T07:00:14.747Z,78.08
2022-10-03T07:08:22.336Z,78.49
2022-10-03T07:11:15.474Z,77.72
2022-10-03T07:14:00.195Z,77.34
2022-10-03T07:16:53.023Z,78.31
2022-10-03T07:19:38.389Z,78.45
2022-10-03T07:22:41.232Z,78.80
2022-10-03T07:29:13.188Z,78.14
2022-10-03T07:32:00.894Z,77.62
2022-10-03T07:35:02.227Z,78.02
2022-10-03T07:38:04.258Z,78.48
2022-10-03T07:41:04.754Z,78.52
2022-10-03T07:44:06.270Z,78.63
2022-10-03T07:52:13.257Z,78.99
2022-10-03T07:54:59.279Z,79.52
2022-10-03T07:58:03.967Z,80.78
2022-10-03T08:00:46.979Z,80.67
2022-10-03T08:03:56.884Z,80.57
2022-10-03T08:06:35.369Z,80.10
2022-10-03T08:16:01.089Z,78.35
2022-10-03T08:19:01.912Z,78.92
2022-10-03T08:21:38.597Z,79.33
2022-10-03T08:24:36.528Z,79.42
2022-10-03T08:27:34.679Z,79.25
2022-10-03T08:30:31.698Z,80.13
2022-10-03T08:33:42.679Z,80.06
2022-10-03T08:36:42.696Z,80.13
2022-10-03T08:39:37.211Z,79.69
2022-10-03T08:42:33.250Z,78.81
2022-10-03T08:45:26.825Z,78.54
2022-10-03T08:48:38.094Z,76.89
2022-10-03T08:51:38.901Z,76.43
2022-10-03T08:54:25.047Z,77.71
2022-10-03T08:57:24.833Z,78.51
2022-10-03T09:00:07.638Z,78.01
2022-10-03T09:03:39.306Z,78.10
2022-10-03T09:07:18.920Z,78.14
2022-10-03T09:10:14.050Z,77.59
2022-10-03T09:13:19.743Z,77.08
2022-10-03T09:16:18.538Z,76.85
2022-10-03T09:19:04.854Z,76.43
2022-10-03T09:22:04.937Z,76.63
2022-10-03T09:25:06.303Z,77.21
2022-10-03T09:28:02.329Z,76.94
2022-10-03T09:30:48.965Z,77.09
2022-10-03T09:36:24.962Z,77.12
2022-10-03T09:39:17.777Z,78.00
2022-10-03T09:42:25.070Z,77.24
2022-10-03T09:45:23.580Z,77.06
2022-10-03T09:48:28.032Z,77.59
2022-10-03T09:51:26.248Z,77.47
2022-10-03T09:57:08.733Z,76.50
2022-10-03T10:00:02.775Z,74.58
2022-10-03T10:03:19.698Z,73.44
2022-10-03T10:06:15.272Z,72.30
2022-10-03T10:09:27.532Z,73.65
2022-10-03T10:12:18.523Z,71.40
2022-10-03T10:19:05.093Z,72.15
2022-10-03T10:21:59.009Z,72.46
2022-10-03T10:24:58.138Z,73.45
2022-10-03T10:28:02.777Z,74.04
2022-10-03T10:31:04.749Z,73.20
2022-10-03T10:37:18.519Z,70.88
2022-10-03T10:40:12.008Z,69.85
2022-10-03T10:43:20.647Z,68.96
2022-10-03T10:46:16.751Z,69.23
2022-10-03T10:49:35.134Z,70.03
2022-10-03T10:52:46.141Z,69.99
2022-10-03T11:01:01.234Z,71.02
2022-10-03T11:04:19.246Z,68.33
2022-10-03T11:07:19.951Z,65.11
2022-10-03T11:10:31.082Z,64.96
2022-10-03T11:13:36.109Z,66.21
2022-10-03T11:16:42.877Z,64.70
2022-10-03T11:19:35.287Z,62.47
2022-10-03T11:22:38.703Z,62.97
2022-10-03T11:25:40.402Z,63.04
2022-10-03T11:28:59.865Z,65.39
2022-10-03T11:31:50.215Z,65.65
2022-10-03T11:34:57.626Z,64.40
2022-10-03T11:37:37.164Z,65.69
2022-10-03T11:40:23.438Z,61.65
2022-10-03T11:43:02.118Z,61.40
2022-10-03T11:45:33.959Z,60.17
2022-10-03T11:48:21.294Z,61.62
2022-10-03T11:50:54.965Z,60.40
2022-10-03T11:53:32.028Z,61.48
2022-10-03T11:56:19.998Z,63.36
2022-10-03T11:59:01.886Z,61.65
2022-10-03T12:01:40.641Z,63.76
2022-10-03T12:04:18.147Z,61.11
2022-10-03T12:07:17.763Z,60.61
2022-10-03T12:10:01.341Z,60.89
2022-10-03T12:12:43.767Z,62.65
2022-10-03T12:15:31.205Z,61.74
2022-10-03T12:18:08.175Z,60.78
2022-10-03T12:23:25.081Z,61.82
2022-10-03T12:25:54.448Z,60.44
2022-10-03T12:28:25.731Z,60.25
2022-10-03T12:31:00.204Z,60.93
2022-10-03T12:33:43.155Z,61.44
2022-10-03T12:36:16.183Z,63.09
2022-10-03T12:39:10.373Z,64.00
2022-10-03T12:41:57.179Z,64.80
2022-10-03T12:44:37.809Z,63.79
2022-10-03T12:47:37.626Z,64.93
2022-10-03T12:50:27.798Z,64.70
2022-10-03T12:53:21.176Z,64.35
2022-10-03T12:56:04.751Z,64.65
2022-10-03T12:58:44.350Z,61.75
2022-10-03T13:01:24.423Z,59.40
2022-10-03T13:04:05.986Z,57.34
2022-10-03T13:07:02.920Z,59.57
2022-10-03T13:09:51.249Z,59.25
2022-10-03T13:12:29.359Z,56.37
2022-10-03T13:15:45.468Z,59.19
2022-10-03T13:18:29.183Z,60.84
2022-10-03T13:21:21.379Z,62.12
2022-10-03T13:23:59.919Z,60.37
2022-10-03T13:26:40.092Z,58.55
2022-10-03T13:29:27.059Z,60.04
2022-10-03T13:32:13.523Z,61.79
2022-10-03T13:35:23.366Z,63.04
2022-10-03T13:38:10.856Z,62.78
2022-10-03T13:40:47.198Z,62.23
2022-10-03T13:43:21.692Z,62.39
2022-10-03T13:45:57.136Z,62.75
2022-10-03T13:48:31.805Z,63.14
2022-10-03T13:51:05.470Z,63.47
2022-10-03T13:53:55.459Z,62.21
2022-10-03T13:56:40.278Z,62.39
2022-10-03T13:59:28.824Z,61.16
2022-10-03T14:02:08.927Z,61.24
2022-10-03T14:05:00.890Z,59.93
2022-10-03T14:07:45.199Z,59.61
2022-10-03T14:10:33.592Z,59.07
2022-10-03T14:13:17.434Z,56.25
2022-10-03T14:15:51.313Z,56.80
2022-10-03T14:18:33.281Z,56.76
2022-10-03T14:21:28.190Z,55.81
2022-10-03T14:24:14.166Z,56.62
2022-10-03T14:26:50.211Z,56.82
2022-10-03T14:29:27.823Z,56.67
2022-10-03T14:32:02.290Z,56.38
2022-10-03T14:34:47.636Z,56.17
2022-10-03T14:37:27.097Z,56.41
2022-10-03T14:40:13.620Z,56.42
2022-10-03T14:43:03.060Z,55.25
2022-10-03T14:45:35.460Z,56.18
2022-10-03T14:48:12.111Z,57.09
2022-10-03T14:50:44.039Z,56.69
2022-10-03T14:53:20.385Z,57.06
2022-10-03T14:56:00.626Z,56.17
2022-10-03T14:58:32.673Z,56.31
2022-10-03T15:01:10.738Z,56.64
2022-10-03T15:03:40.622Z,57.07
2022-10-03T15:06:50.263Z,56.34
2022-10-03T15:09:21.648Z,56.26
2022-10-03T15:11:54.189Z,56.67
2022-10-03T15:14:24.630Z,57.24
2022-10-03T15:16:55.983Z,57.84
2022-10-03T15:19:31.896Z,57.87
2022-10-03T15:22:07.629Z,58.15
2022-10-03T15:24:39.111Z,57.40
2022-10-03T15:27:13.833Z,57.02
2022-10-03T15:29:44.954Z,57.35
2022-10-03T15:34:51.374Z,58.70
2022-10-03T15:37:30.250Z,58.90
2022-10-03T15:40:03.257Z,57.81
2022-10-03T15:42:32.740Z,58.25
2022-10-03T15:45:06.433Z,58.09
2022-10-03T15:47:36.754Z,57.99
2022-10-03T15:50:13.204Z,58.63
2022-10-03T15:52:46.234Z,59.47
2022-10-03T15:55:19.731Z,59.08
2022-10-03T15:57:50.552Z,59.51
2022-10-03T16:00:24.526Z,60.13
2022-10-03T16:03:00.206Z,60.28
2022-10-03T16:05:28.672Z,60.17
2022-10-03T16:08:05.191Z,60.28
2022-10-03T16:10:38.799Z,60.08
2022-10-03T16:13:20.164Z,59.24
2022-10-03T16:16:08.857Z,60.32
2022-10-03T16:18:51.957Z,60.92
2022-10-03T16:21:40.429Z,59.56
2022-10-03T16:24:22.101Z,58.38
2022-10-03T16:26:55.857Z,58.74
2022-10-03T16:29:32.354Z,59.25
2022-10-03T16:32:04.940Z,59.71
2022-10-03T16:34:35.300Z,59.76
2022-10-03T16:37:06.279Z,59.71
2022-10-03T16:39:38.567Z,60.45
2022-10-03T16:42:14.296Z,60.42
2022-10-03T16:44:51.447Z,60.85
2022-10-03T16:47:29.481Z,60.61
2022-10-03T16:50:16.810Z,61.18
2022-10-03T16:52:47.975Z,60.17
2022-10-03T16:55:22.519Z,60.34
2022-10-03T16:57:53.955Z,60.05
2022-10-03T17:00:24.565Z,61.07
2022-10-03T17:02:53.692Z,60.73
2022-10-03T17:05:22.281Z,60.81
2022-10-03T17:07:54.787Z,61.06
2022-10-03T17:10:35.247Z,60.21
2022-10-03T17:13:10.787Z,61.04
2022-10-03T17:15:49.267Z,61.61
2022-10-03T17:18:26.133Z,62.29
2022-10-03T17:20:57.700Z,62.73
2022-10-03T17:23:31.160Z,61.19
2022-10-03T17:26:05.991Z,61.40
2022-10-03T17:28:41.449Z,61.24
2022-10-03T17:31:29.916Z,61.50
2022-10-03T17:34:06.270Z,61.74
2022-10-03T17:37:04.975Z,61.94
2022-10-03T17:39:40.993Z,62.02
2022-10-03T17:42:24.498Z,62.44
2022-10-03T17:45:00.319Z,62.27
2022-10-03T17:47:41.117Z,61.68
2022-10-03T17:50:15.640Z,62.22
2022-10-03T17:52:47.179Z,62.67
2022-10-03T17:55:20.280Z,62.68
2022-10-03T17:57:52.638Z,62.34
2022-10-03T18:00:22.282Z,63.30
2022-10-03T18:02:59.159Z,64.08
2022-10-03T18:05:30.448Z,63.13
2022-10-03T18:08:05.816Z,62.71
2022-10-03T18:10:38.794Z,62.81
2022-10-03T18:13:18.052Z,62.78
2022-10-03T18:16:18.342Z,62.69
2022-10-03T18:19:10.785Z,62.70
2022-10-03T18:22:03.313Z,62.87
2022-10-03T18:24:52.747Z,62.51
2022-10-03T18:27:44.514Z,62.72
2022-10-03T18:30:20.172Z,63.23
2022-10-03T18:32:50.254Z,63.65
2022-10-03T18:35:22.985Z,63.71
2022-10-03T18:37:59.555Z,65.21
2022-10-03T18:40:30.510Z,64.90
2022-10-03T18:43:00.433Z,64.69
2022-10-03T18:45:32.395Z,64.17
2022-10-03T18:48:08.285Z,64.04
2022-10-03T18:50:51.254Z,64.72
2022-10-03T18:53:28.135Z,64.17
2022-10-03T18:56:00.511Z,63.67
2022-10-03T18:58:32.066Z,63.00
2022-10-03T19:01:06.244Z,63.69
2022-10-03T19:03:40.286Z,64.57
2022-10-03T19:06:19.622Z,64.99
2022-10-03T19:08:53.275Z,65.15
2022-10-03T19:11:26.078Z,65.17
2022-10-03T19:14:02.277Z,65.36
2022-10-03T19:16:45.239Z,65.71
2022-10-03T19:19:26.270Z,65.60
2022-10-03T19:21:54.610Z,63.93
2022-10-03T19:24:46.506Z,65.10
2022-10-03T19:27:18.826Z,65.25
2022-10-03T19:29:50.407Z,65.50
2022-10-03T19:32:26.756Z,65.66
2022-10-03T19:34:58.197Z,65.52
2022-10-03T19:37:44.539Z,65.89
2022-10-03T19:40:16.449Z,65.48
2022-10-03T19:42:48.378Z,65.99
2022-10-03T19:45:19.710Z,65.36
2022-10-03T19:47:54.339Z,64.95
2022-10-03T19:50:28.232Z,66.09
2022-10-03T19:52:56.896Z,65.24
2022-10-03T19:55:30.972Z,65.81
2022-10-03T19:58:02.054Z,66.76
2022-10-03T20:00:32.944Z,66.17
2022-10-03T20:03:18.159Z,66.45
2022-10-03T20:05:55.801Z,66.06
2022-10-03T20:08:27.383Z,66.23
2022-10-03T20:11:15.426Z,66.37
2022-10-03T20:13:46.216Z,67.20
2022-10-03T20:16:18.322Z,67.51
2022-10-03T20:18:50.191Z,67.20
2022-10-03T20:21:21.800Z,67.53
2022-10-03T20:23:50.717Z,67.82
2022-10-03T20:26:30.446Z,67.65
2022-10-03T20:29:28.567Z,68.27
2022-10-03T20:32:15.416Z,68.83
2022-10-03T20:34:50.822Z,69.12
2022-10-03T20:37:36.666Z,69.09
2022-10-03T20:40:17.467Z,69.60
2022-10-03T20:42:49.308Z,69.27
2022-10-03T20:45:23.546Z,69.65
2022-10-03T20:48:00.327Z,69.84
2022-10-03T20:50:33.547Z,69.98
2022-10-03T20:53:03.235Z,69.90
2022-10-03T20:55:34.188Z,70.25
2022-10-03T20:58:14.339Z,70.02
2022-10-03T21:00:47.474Z,70.50
2022-10-03T21:03:27.454Z,70.46
2022-10-03T21:05:59.203Z,70.71
2022-10-03T21:08:30.107Z,70.53
2022-10-03T21:11:02.507Z,70.66
2022-10-03T21:13:34.784Z,71.07
2022-10-03T21:16:05.933Z,71.45
2022-10-03T21:18:38.314Z,70.80
2022-10-03T21:21:13.835Z,71.52
2022-10-03T21:23:48.339Z,70.67
2022-10-03T21:26:22.280Z,70.99
2022-10-03T21:28:49.988Z,70.78
2022-10-03T21:31:31.965Z,71.05
2022-10-03T21:34:17.334Z,71.49
2022-10-03T21:36:52.872Z,71.54
2022-10-03T21:39:33.878Z,72.49
2022-10-03T21:42:13.670Z,72.00
2022-10-03T21:44:59.527Z,71.81
2022-10-03T21:47:45.088Z,71.56
2022-10-03T21:50:20.588Z,70.56
2022-10-03T21:53:11.867Z,71.14
2022-10-03T21:56:00.086Z,71.05
2022-10-03T21:58:43.664Z,70.42
2022-10-03T22:01:26.857Z,70.81
2022-10-03T22:04:03.324Z,70.66
2022-10-03T22:06:38.058Z,70.63
2022-10-03T22:09:13.930Z,70.21
2022-10-03T22:11:49.953Z,69.90
2022-10-03T22:14:29.585Z,69.69
2022-10-03T22:17:06.927Z,69.92
2022-10-03T22:19:39.963Z,70.22
2022-10-03T22:22:29.761Z,70.19
2022-10-03T22:25:16.428Z,70.37
2022-10-03T22:27:52.503Z,70.33
2022-10-03T22:30:22.227Z,70.55
2022-10-03T22:33:08.184Z,69.61
2022-10-03T22:35:50.312Z,69.69
2022-10-03T22:38:21.424Z,70.64
2022-10-03T22:40:51.639Z,70.40
2022-10-03T22:43:20.684Z,70.41
2022-10-03T22:48:24.364Z,69.81
2022-10-03T22:50:55.287Z,70.03
2022-10-03T22:56:45.150Z,69.77
2022-10-03T22:59:16.271Z,70.04
2022-10-03T23:01:46.928Z,70.16
2022-10-03T23:04:23.953Z,70.61
2022-10-03T23:07:12.005Z,70.76
2022-10-03T23:09:50.100Z,70.45
2022-10-03T23:23:01.750Z,71.58
2022-10-03T23:25:33.831Z,71.05
2022-10-03T23:28:17.455Z,71.32
2022-10-03T23:30:50.496Z,71.62
2022-10-03T23:33:19.184Z,71.44
2022-10-03T23:35:47.367Z,71.75
2022-10-03T23:43:29.148Z,71.81
2022-10-03T23:45:59.537Z,71.85
2022-10-03T23:48:28.575Z,72.09
2022-10-03T23:50:58.639Z,71.33
2022-10-03T23:53:30.338Z,70.65
2022-10-03T23:55:58.874Z,70.98
2022-10-03T23:58:30.335Z,71.27
